Time;durP1;ratioP1;P1;durP2;ratioP2;P2;SDS_P1;SDS_P2;PMS_P1;PMS_P2;Temp;Humidity;BMP_temperature;BMP_pressure;BME280_temperature;BME280_humidity;BME280_pressure;Samples;Min_cycle;Max_cycle;Signal;HPM_P1;HPM_P2
2021/12/13 00:00:13;;;;;;;150.52;9.02;;;3.00;99.90;;;1.20;100.00;101594.56;4957177;28;20073;-78
2021/12/13 00:03:13;;;;;;;125.93;9.05;;;3.00;99.90;;;1.25;100.00;101602.38;4985482;28;20046;-78
2021/12/13 00:06:21;;;;;;;126.50;8.63;;;3.00;99.90;;;1.27;100.00;101619.69;4927816;28;20107;-80
2021/12/13 00:08:54;;;;;;;131.57;9.75;;;3.10;99.90;;;1.32;100.00;101624.91;4948073;28;20026;-79
2021/12/13 00:11:41;;;;;;;153.43;8.15;;;3.10;99.90;;;1.33;100.00;101632.69;4951144;28;20025;-79
2021/12/13 00:14:24;;;;;;;145.48;9.05;;;3.20;99.90;;;1.34;100.00;101644.84;4898921;28;20160;-79
2021/12/13 00:17:06;;;;;;;157.43;8.75;;;3.20;99.90;;;1.33;100.00;101645.69;4921321;28;20389;-79
2021/12/13 00:19:57;;;;;;;100.13;7.22;;;3.20;99.90;;;1.33;100.00;101650.88;4985504;28;20066;-80
2021/12/13 00:22:42;;;;;;;112.72;7.85;;;3.20;99.90;;;1.36;100.00;101661.28;4929433;28;20670;-80
2021/12/13 00:25:20;;;;;;;95.70;7.20;;;3.20;99.90;;;1.40;100.00;101665.63;4958251;28;20100;-79
2021/12/13 00:28:05;;;;;;;173.18;8.63;;;3.30;99.90;;;1.46;100.00;101671.72;4945687;28;20037;-80
2021/12/13 00:31:10;;;;;;;145.63;7.47;;;5.00;99.90;;;1.54;100.00;101685.63;4941409;28;20033;-79
2021/12/13 00:34:14;;;;;;;130.93;8.43;;;3.30;99.90;;;1.63;100.00;101691.72;4902258;28;20051;-80
2021/12/13 00:37:21;;;;;;;123.25;9.57;;;3.50;99.90;;;1.75;100.00;101684.84;4979780;28;20208;-80
2021/12/13 00:40:18;;;;;;;136.75;9.93;;;3.60;99.90;;;1.83;100.00;101694.41;4967776;28;20025;-80
2021/12/13 00:42:53;;;;;;;;;;;3.70;99.90;;;1.88;100.00;101655.50;4970321;28;20044;-80
2021/12/13 00:45:27;;;;;;;171.18;10.07;;;3.70;99.90;;;1.89;100.00;101690.13;4975909;28;19913;-80
2021/12/13 00:48:01;;;;;;;178.80;10.30;;;3.70;99.90;;;1.89;100.00;101693.59;4974276;28;20056;-80
2021/12/13 00:50:46;;;;;;;179.95;10.75;;;3.70;99.90;;;1.93;100.00;101710.91;4932450;28;20064;-80
2021/12/13 00:53:18;;;;;;;227.45;12.25;;;3.80;99.90;;;2.00;100.00;101723.06;4919713;28;20097;-80
2021/12/13 00:55:47;;;;;;;197.35;12.98;;;3.80;99.90;;;2.05;100.00;101729.16;4938997;28;20451;-80
2021/12/13 00:58:23;;;;;;;225.85;13.05;;;3.90;99.90;;;2.08;100.00;101733.50;4906741;28;20128;-80
2021/12/13 01:01:03;;;;;;;176.77;12.15;;;3.90;99.90;;;2.14;100.00;101725.75;4925442;28;20074;-80
2021/12/13 01:03:44;;;;;;;229.05;13.70;;;3.90;99.90;;;2.18;100.00;101745.69;4941267;28;20233;-80
2021/12/13 01:07:13;;;;;;;206.88;13.27;;;4.00;99.90;;;2.24;100.00;101761.28;4906912;28;20494;-80
2021/12/13 01:10:12;;;;;;;284.83;13.43;;;4.00;99.90;;;2.23;100.00;101769.09;4970774;28;20078;-80
2021/12/13 01:12:39;;;;;;;204.45;13.02;;;4.00;99.90;;;2.28;100.00;101769.97;4939669;28;20045;-81
2021/12/13 01:15:47;;;;;;;303.20;13.95;;;4.00;99.90;;;2.25;100.00;101773.44;4948687;28;20095;-80
2021/12/13 01:18:28;;;;;;;233.15;13.30;;;4.00;99.90;;;2.25;100.00;101786.41;5016252;28;20040;-80
2021/12/13 01:24:15;;;;;;;270.90;13.32;;;4.00;99.90;;;2.28;100.00;101802.91;4934501;28;20133;-80
2021/12/13 01:26:55;;;;;;;295.92;13.68;;;4.00;99.90;;;2.26;100.00;101802.88;4913318;28;20033;-80
2021/12/13 01:29:31;;;;;;;216.55;11.25;;;4.00;99.90;;;2.21;100.00;101792.47;4940489;28;20025;-80
2021/12/13 01:32:14;;;;;;;234.77;12.18;;;4.00;99.90;;;2.20;100.00;101815.84;4977400;28;20115;-80
2021/12/13 01:34:40;;;;;;;269.80;13.95;;;4.00;99.90;;;2.20;100.00;101814.13;4959486;28;20440;-81
2021/12/13 01:37:18;;;;;;;248.82;10.43;;;4.00;99.90;;;2.23;100.00;101844.44;4950644;28;20090;-80
2021/12/13 01:40:05;;;;;;;198.20;11.75;;;4.00;99.90;;;2.21;100.00;101838.38;4909705;28;20510;-80
2021/12/13 01:42:31;;;;;;;218.07;11.63;;;4.00;99.90;;;2.17;100.00;101840.06;4955408;28;20128;-80
2021/12/13 01:45:13;;;;;;;254.45;12.43;;;4.00;99.90;;;2.21;100.00;101848.78;4932660;28;20109;-80
2021/12/13 01:47:45;;;;;;;254.35;11.68;;;4.00;99.90;;;2.19;100.00;101850.50;4926509;28;20068;-80
2021/12/13 01:50:41;;;;;;;238.40;12.57;;;4.00;99.90;;;2.21;100.00;101856.56;4908784;28;20038;-80
2021/12/13 01:53:07;;;;;;;249.77;12.68;;;4.00;99.90;;;2.21;100.00;101852.22;4923446;28;20095;-80
2021/12/13 01:55:48;;;;;;;227.55;11.82;;;4.00;99.90;;;2.27;100.00;101851.41;4916180;28;20025;-81
2021/12/13 02:01:11;;;;;;;182.38;12.05;;;4.10;99.90;;;2.29;100.00;101874.78;4960037;28;20064;-79
2021/12/13 02:04:03;;;;;;;224.68;12.40;;;4.10;99.90;;;2.34;100.00;101892.16;4941360;28;20050;-80
2021/12/13 02:06:55;;;;;;;208.10;13.10;;;4.10;99.90;;;2.42;100.00;101887.88;4973488;28;20068;-80
2021/12/13 02:09:35;;;;;;;231.32;14.25;;;4.20;99.90;;;2.51;100.00;101896.59;4928907;28;20042;-80
2021/12/13 02:12:06;;;;;;;194.23;13.40;;;4.30;99.90;;;2.55;100.00;101903.53;4933231;28;20164;-80
2021/12/13 02:14:41;;;;;;;257.98;15.18;;;4.30;99.90;;;2.54;100.00;101907.88;4931836;28;20501;-80
2021/12/13 02:17:21;;;;;;;191.90;13.70;;;4.30;99.90;;;2.55;100.00;101914.81;4958453;28;20524;-79
2021/12/13 02:20:00;;;;;;;234.20;14.10;;;4.30;99.90;;;2.60;100.00;101920.03;4955603;28;20029;-80
2021/12/13 02:22:38;;;;;;;202.80;15.35;;;;;;;2.64;100.00;101914.88;4972605;28;20115;-80
2021/12/13 02:25:18;;;;;;;186.60;14.40;;;;;;;2.67;100.00;101921.81;4956336;28;20033;-80
2021/12/13 02:28:03;;;;;;;267.92;14.95;;;4.40;99.90;;;2.69;100.00;101935.69;4943793;28;20705;-79
2021/12/13 02:30:39;;;;;;;237.80;14.88;;;4.40;99.90;;;2.69;100.00;101932.22;4902336;28;20120;-80
2021/12/13 02:33:11;;;;;;;199.75;13.48;;;4.40;99.90;;;2.67;100.00;101943.47;4900561;28;20110;-81
2021/12/13 02:36:01;;;;;;;233.48;12.50;;;4.40;99.90;;;2.65;100.00;101941.72;4913625;28;20030;-80
2021/12/13 02:38:28;;;;;;;230.43;12.82;;;4.40;99.90;;;2.63;100.00;101922.66;4942145;28;20021;-81
2021/12/13 02:41:03;;;;;;;260.45;12.77;;;4.40;99.90;;;2.63;100.00;101941.72;4951872;28;20029;-80
2021/12/13 02:43:45;;;;;;;193.57;13.98;;;5.40;99.90;;;2.61;100.00;101948.66;4950870;28;20037;-80
2021/12/13 02:46:12;;;;;;;71.65;13.07;;;4.40;99.90;;;2.69;100.00;101981.63;4967676;28;20037;-80
2021/12/13 02:48:54;;;;;;;83.53;13.60;;;4.50;99.90;;;2.76;100.00;101978.22;4914426;28;20059;-81
2021/12/13 02:51:46;;;;;;;62.70;12.70;;;4.50;99.90;;;2.79;100.00;101999.91;4953103;28;20017;-80
2021/12/13 02:54:25;;;;;;;102.90;14.07;;;4.50;99.90;;;2.76;100.00;102005.06;4912294;28;20528;-80
2021/12/13 02:57:06;;;;;;;58.45;13.65;;;4.50;99.90;;;2.78;100.00;102031.09;4909008;28;21572;-79
2021/12/13 02:59:40;;;;;;;77.70;12.65;;;4.50;99.90;;;2.75;100.00;102033.69;4931950;28;20036;-80
2021/12/13 03:02:40;;;;;;;108.10;13.70;;;4.50;99.90;;;2.74;100.00;102047.56;4965977;28;20037;-82
2021/12/13 03:05:14;;;;;;;55.03;13.32;;;4.50;99.90;;;2.79;100.00;102049.34;4936938;28;20030;-81
2021/12/13 03:07:47;;;;;;;96.63;14.25;;;4.60;99.90;;;2.83;100.00;102084.91;4948314;28;20164;-81
2021/12/13 03:10:38;;;;;;;76.25;13.23;;;4.60;99.90;;;2.77;100.00;102055.41;4943777;28;20028;-81
2021/12/13 03:13:07;;;;;;;60.05;13.00;;;4.50;99.90;;;2.78;100.00;102073.59;4945501;28;20041;-80
2021/12/13 03:15:43;;;;;;;52.22;12.90;;;4.50;99.90;;;2.76;100.00;102082.25;4947132;28;20116;-80
2021/12/13 03:18:35;;;;;;;55.72;12.43;;;4.50;99.90;;;2.74;100.00;102081.38;4952702;28;20078;-80
2021/12/13 03:21:24;;;;;;;51.70;12.25;;;;;;;2.80;100.00;102094.41;4957595;28;20032;-80
2021/12/13 03:24:03;;;;;;;54.72;11.48;;;3.50;99.90;;;2.73;100.00;102101.31;4930379;28;20037;-80
2021/12/13 03:26:55;;;;;;;46.38;10.45;;;4.50;99.90;;;2.75;100.00;102103.94;4959805;28;20029;-80
2021/12/13 03:29:41;;;;;;;47.95;9.98;;;4.50;99.90;;;2.80;100.00;102115.22;4968834;28;20035;-80
2021/12/13 03:32:17;;;;;;;;;;;4.60;99.90;;;2.84;100.00;102114.41;4975166;28;20663;-81
2021/12/13 03:35:34;;;;;;;48.55;10.75;;;4.60;99.90;;;2.89;100.00;102133.50;4906582;28;19922;-79
2021/12/13 03:38:21;;;;;;;52.83;10.02;;;4.60;99.90;;;2.92;100.00;102140.50;4927212;28;20160;-81
2021/12/13 03:40:49;;;;;;;53.42;12.02;;;4.70;99.90;;;2.95;100.00;102141.38;4969003;28;20045;-80
2021/12/13 03:43:31;;;;;;;52.78;11.05;;;4.70;99.90;;;2.96;100.00;102145.72;4953933;28;20017;-80
2021/12/13 03:46:06;;;;;;;44.08;10.77;;;4.70;99.90;;;2.94;100.00;102156.94;4963547;28;20104;-80
2021/12/13 03:48:34;;;;;;;39.78;9.75;;;4.70;99.90;;;2.92;100.00;102143.97;4927435;28;20035;-80
2021/12/13 03:51:15;;;;;;;39.20;9.18;;;4.70;99.90;;;2.83;100.00;102202.00;4900187;28;20388;-80
2021/12/13 03:53:56;;;;;;;165.98;9.32;;;4.60;99.90;;;2.73;100.00;102210.56;4956058;28;20049;-81
2021/12/13 03:56:30;;;;;;;126.53;9.27;;;4.50;99.90;;;2.61;100.00;102200.91;4930903;28;20056;-79
2021/12/13 03:59:13;;;;;;;79.72;9.82;;;4.50;99.90;;;2.59;100.00;102201.75;4935989;28;20019;-80
2021/12/13 04:01:54;;;;;;;59.38;9.00;;;4.50;99.90;;;2.52;100.00;102233.75;4963977;23;20028;-80
2021/12/13 04:04:51;;;;;;;122.43;8.40;;;4.40;99.90;;;2.54;100.00;102221.63;4887009;28;20031;-81
2021/12/13 04:07:30;;;;;;;132.77;8.77;;;4.40;99.90;;;2.51;100.00;102255.41;4909462;28;20036;-80
2021/12/13 04:10:10;;;;;;;63.83;7.38;;;4.30;99.90;;;2.48;100.00;102282.22;4876767;28;20056;-81
2021/12/13 04:12:44;;;;;;;56.90;7.53;;;4.40;99.90;;;2.53;100.00;102261.47;4938389;28;20049;-81
2021/12/13 04:15:38;;;;;;;97.13;7.55;;;4.40;99.90;;;2.49;100.00;102286.59;4893403;28;20439;-82
2021/12/13 04:18:26;;;;;;;48.72;7.15;;;4.30;99.90;;;2.50;100.00;102293.53;4937761;28;20059;-81
2021/12/13 04:21:06;;;;;;;89.35;8.35;;;4.30;99.90;;;2.52;100.00;102298.75;4936886;28;20044;-80
2021/12/13 04:23:34;;;;;;;43.55;6.85;;;4.40;99.90;;;2.54;100.00;102299.63;4936942;23;20056;-80
2021/12/13 04:26:11;;;;;;;71.43;6.80;;;4.50;99.90;;;2.57;100.00;102284.97;4920036;28;20038;-80
2021/12/13 04:28:49;;;;;;;119.20;7.28;;;4.50;99.90;;;2.53;100.00;102288.38;4959439;28;20052;-81
2021/12/13 04:31:21;;;;;;;144.55;6.65;;;4.40;99.90;;;2.49;100.00;102306.53;4935004;28;20544;-80
2021/12/13 04:33:55;;;;;;;110.35;6.60;;;4.40;99.90;;;2.48;100.00;102334.22;4903993;28;20074;-80
2021/12/13 04:36:37;;;;;;;93.28;6.75;;;4.40;99.90;;;2.41;100.00;102327.22;4960205;28;20028;-79
2021/12/13 04:39:13;;;;;;;82.30;6.07;;;4.30;99.90;;;2.44;100.00;102325.53;4955141;28;20516;-80
2021/12/13 04:41:59;;;;;;;24.70;6.93;;;4.30;99.90;;;2.39;100.00;102341.91;4973880;22;20037;-81
2021/12/13 04:44:52;;;;;;;26.83;8.65;;;4.20;99.90;;;2.44;100.00;102355.84;4917822;28;20049;-80
2021/12/13 04:47:31;;;;;;;26.98;8.52;;;4.30;99.90;;;2.49;100.00;102350.72;4909167;28;20035;-81
2021/12/13 04:50:19;;;;;;;29.20;9.45;;;4.40;99.90;;;2.55;100.00;102372.47;4889379;28;20518;-81
2021/12/13 04:52:49;;;;;;;45.58;9.30;;;;;;;2.70;100.00;102370.91;4901217;28;20379;-80
2021/12/13 04:55:43;;;;;;;29.15;8.15;;;4.60;99.90;;;2.88;100.00;102377.22;4944427;28;20045;-81
2021/12/13 04:58:13;;;;;;;38.53;8.88;;;4.70;99.90;;;2.94;100.00;102397.25;4881340;28;20038;-81
2021/12/13 05:00:52;;;;;;;35.22;8.05;;;4.80;99.90;;;3.01;100.00;102412.06;4912328;28;20057;-81
2021/12/13 05:03:27;;;;;;;51.80;9.20;;;4.90;99.90;;;3.07;100.00;102419.94;4921027;23;20067;-80
2021/12/13 05:05:53;;;;;;;40.72;10.07;;;4.80;99.90;;;3.03;100.00;102431.16;4913937;28;20057;-80
2021/12/13 05:08:21;;;;;;;40.22;10.63;;;4.80;99.90;;;3.00;100.00;102444.16;4917697;28;20117;-80
2021/12/13 05:10:53;;;;;;;35.30;9.82;;;4.80;99.90;;;3.03;100.00;102454.59;4940035;28;20044;-81
2021/12/13 05:13:34;;;;;;;36.83;9.10;;;4.80;99.90;;;2.92;100.00;102469.19;4983078;28;20045;-80
2021/12/13 05:16:12;;;;;;;30.50;9.27;;;4.70;99.90;;;2.93;100.00;102460.53;4945562;28;20030;-80
2021/12/13 05:18:51;;;;;;;28.45;8.88;;;4.70;99.90;;;2.94;100.00;102477.00;4919652;28;20370;-81
2021/12/13 05:21:36;;;;;;;121.20;8.10;;;6.00;99.90;;;2.96;100.00;102489.22;4949450;28;20172;-81
2021/12/13 05:24:29;;;;;;;60.73;10.13;;;4.80;99.90;;;3.05;100.00;102517.94;4951615;28;20041;-80
2021/12/13 05:27:32;;;;;;;211.85;7.60;;;4.90;99.90;;;2.93;100.00;102538.59;4888498;28;20125;-80
2021/12/13 05:30:23;;;;;;;103.97;6.35;;;4.80;99.90;;;2.85;100.00;102537.59;4850137;28;20022;-80
2021/12/13 05:33:01;;;;;;;49.22;6.47;;;4.70;99.90;;;2.82;100.00;102537.56;4959640;28;20045;-81
2021/12/13 05:35:41;;;;;;;64.57;7.72;;;4.70;99.90;;;2.91;100.00;102529.03;4903884;28;20088;-81
2021/12/13 05:38:43;;;;;;;25.60;7.43;;;4.70;99.90;;;2.91;0.00;105614.41;4906698;28;20039;-80
2021/12/13 05:41:26;;;;;;;25.67;7.32;;;4.80;99.90;;;3.20;100.00;102586.69;4952829;28;20048;-81
2021/12/13 05:44:03;;;;;;;25.20;7.50;;;4.80;99.90;;;3.10;100.00;102593.50;4942515;23;20545;-80
2021/12/13 05:46:47;;;;;;;43.92;7.10;;;4.80;99.90;;;3.03;100.00;102615.94;4927601;28;20108;-80
2021/12/13 05:49:43;;;;;;;30.90;7.22;;;4.80;99.90;;;3.04;100.00;102628.09;4897818;28;20038;-81
2021/12/13 05:52:19;;;;;;;24.17;7.80;;;4.80;99.90;;;3.00;100.00;102615.91;4949945;28;20033;-81
2021/12/13 05:54:58;;;;;;;27.33;6.85;;;4.80;99.90;;;3.00;100.00;102657.56;4936956;28;20025;-80
2021/12/13 05:57:34;;;;;;;31.88;8.68;;;4.80;99.90;;;2.98;100.00;102698.31;4926233;28;21457;-81
2021/12/13 06:00:19;;;;;;;39.00;9.60;;;4.80;99.90;;;2.99;100.00;102707.84;4939055;28;20045;-81
2021/12/13 06:03:09;;;;;;;25.48;8.93;;;4.80;99.90;;;3.02;100.00;102714.81;4925502;28;20044;-81
2021/12/13 06:05:52;;;;;;;40.38;8.43;;;4.80;99.90;;;3.05;100.00;102718.34;4922671;28;20050;-81
2021/12/13 06:08:22;;;;;;;50.05;12.32;;;;;;;3.02;100.00;102739.16;4897710;28;20701;-80
2021/12/13 06:10:58;;;;;;;39.22;10.23;;;4.80;99.90;;;3.00;100.00;102747.75;4904015;28;20030;-81
2021/12/13 06:13:51;;;;;;;19.05;6.57;;;4.80;99.90;;;3.01;100.00;102715.69;4892644;28;20041;-82
2021/12/13 06:16:28;;;;;;;47.38;12.75;;;4.80;99.90;;;2.99;100.00;102743.41;4931368;28;20041;-80
2021/12/13 06:20:08;;;;;;;67.63;16.95;;;4.80;99.90;;;2.98;100.00;102778.97;4898826;28;20089;-81
2021/12/13 06:22:38;;;;;;;95.22;24.83;;;4.80;99.90;;;2.97;100.00;102792.81;4884244;23;20045;-80
2021/12/13 06:25:18;;;;;;;102.13;28.38;;;4.80;99.90;;;2.99;100.00;102785.06;4917023;28;20053;-80
2021/12/13 06:27:59;;;;;;;51.72;10.82;;;4.80;99.90;;;2.99;100.00;102804.13;4901044;28;20057;-81
2021/12/13 06:30:38;;;;;;;72.75;12.13;;;4.80;99.90;;;2.97;100.00;102816.25;4931696;28;20506;-80
2021/12/13 06:33:09;;;;;;;105.90;24.67;;;4.80;99.90;;;2.94;100.00;102834.41;4877054;28;20055;-81
2021/12/13 06:35:47;;;;;;;104.90;14.77;;;4.70;99.90;;;2.90;100.00;102835.22;4893964;28;20030;-81
2021/12/13 06:38:22;;;;;;;194.93;26.27;;;4.70;99.90;;;2.83;100.00;102846.31;4871659;28;20034;-81
2021/12/13 06:41:19;;;;;;;82.28;20.20;;;4.60;99.90;;;2.80;100.00;102872.28;4899082;28;20034;-81
2021/12/13 06:43:52;;;;;;;;;;;4.70;99.90;;;2.82;100.00;102855.00;4926286;28;20040;-80
2021/12/13 06:46:24;;;;;;;63.08;14.05;;;4.60;99.90;;;2.81;100.00;102868.88;4930499;28;19947;-81
2021/12/13 06:49:36;;;;;;;68.40;7.68;;;4.60;99.90;;;2.79;100.00;102888.78;4955804;28;20043;-81
2021/12/13 06:52:36;;;;;;;44.65;7.45;;;4.60;99.90;;;2.78;100.00;102923.41;4928525;28;20740;-80
2021/12/13 06:55:16;;;;;;;59.33;8.35;;;4.60;99.90;;;2.78;100.00;102898.28;4896460;28;20037;-81
2021/12/13 06:57:49;;;;;;;84.85;7.63;;;4.60;99.90;;;2.75;100.00;102910.34;4863522;28;20030;-80
2021/12/13 07:00:37;;;;;;;99.38;12.13;;;4.60;99.90;;;2.73;100.00;102910.31;4890247;28;20034;-81
2021/12/13 07:03:11;;;;;;;79.93;10.35;;;4.60;99.90;;;2.72;100.00;102866.06;4918298;28;20048;-81
2021/12/13 07:05:54;;;;;;;70.75;10.30;;;4.60;99.90;;;2.71;100.00;102877.31;4899539;28;20030;-81
2021/12/13 07:08:36;;;;;;;82.75;9.88;;;4.60;99.90;;;2.68;100.00;102893.75;4967079;28;20212;-81
2021/12/13 07:11:12;;;;;;;106.85;9.27;;;4.50;99.90;;;2.66;100.00;102911.91;4950382;28;20136;-81
2021/12/13 07:13:59;;;;;;;86.22;10.27;;;4.50;99.90;;;2.71;100.00;102898.13;4919888;28;20085;-81
2021/12/13 07:16:33;;;;;;;71.90;10.38;;;4.50;99.90;;;2.67;100.00;102911.06;4910442;28;20034;-81
2021/12/13 07:19:10;;;;;;;49.92;9.35;;;4.60;99.90;;;2.75;100.00;102920.78;4900275;28;20458;-80
2021/12/13 07:22:07;;;;;;;41.25;9.88;;;4.60;99.90;;;2.78;100.00;102936.44;4919973;28;20487;-80
2021/12/13 07:24:47;;;;;;;39.67;10.10;;;5.60;99.90;;;2.80;100.00;102898.31;4920823;28;20023;-81
2021/12/13 07:27:23;;;;;;;42.88;10.45;;;4.60;99.90;;;2.80;100.00;102942.53;4913336;28;20669;-81
2021/12/13 07:29:58;;;;;;;34.25;8.55;;;4.70;99.90;;;2.85;100.00;102967.81;4910327;28;20023;-81
2021/12/13 07:32:35;;;;;;;30.08;8.07;;;4.70;99.90;;;2.83;100.00;102971.22;4876735;28;20039;-81
2021/12/13 07:35:11;;;;;;;70.45;6.13;;;4.70;99.90;;;2.86;100.00;102953.97;4923642;28;20033;-81
2021/12/13 07:38:10;;;;;;;67.15;5.53;;;4.70;99.90;;;2.80;100.00;102848.88;4907871;28;20036;-81
2021/12/13 07:40:46;;;;;;;68.00;5.05;;;4.60;99.90;;;2.74;100.00;102958.03;4922402;28;20049;-81
2021/12/13 07:43:28;;;;;;;63.78;5.68;;;4.60;99.90;;;2.69;100.00;102949.25;4918011;28;20399;-81
2021/12/13 07:45:56;;;;;;;91.90;9.07;;;4.50;99.90;;;2.63;100.00;102997.66;4924298;28;20042;-82
2021/12/13 07:48:49;;;;;;;95.65;15.77;;;4.50;99.90;;;2.66;100.00;103007.28;4933529;28;20155;-82
2021/12/13 07:51:31;;;;;;;44.13;9.02;;;4.50;99.90;;;2.80;100.00;103012.78;4891680;28;20034;-82
2021/12/13 07:53:57;;;;;;;45.20;11.45;;;4.70;99.90;;;2.94;100.00;103044.31;4894877;28;20038;-80
2021/12/13 07:56:31;;;;;;;59.78;14.23;;;4.70;99.90;;;2.99;100.00;103060.94;4889466;28;20058;-82
2021/12/13 07:59:15;;;;;;;44.10;7.88;;;4.80;99.90;;;3.11;100.00;103055.09;4912942;28;20039;-81
2021/12/13 08:01:49;;;;;;;37.30;3.58;;;;;;;3.14;100.00;103055.19;4931976;28;20104;-81
2021/12/13 08:04:26;;;;;;;53.85;3.15;;;4.80;99.90;;;3.11;100.00;103048.19;4894550;28;20048;-81
2021/12/13 08:07:07;;;;;;;54.20;6.18;;;4.80;99.90;;;3.10;100.00;103058.56;4930291;28;20033;-81
2021/12/13 08:10:08;;;;;;;62.15;3.22;;;4.80;99.90;;;3.07;100.00;103055.06;4895339;28;20030;-81
2021/12/13 08:12:50;;;;;;;80.18;6.57;;;4.80;99.90;;;3.08;100.00;103076.75;4840616;28;20072;-81
2021/12/13 08:15:43;;;;;;;75.78;8.40;;;4.80;99.90;;;3.06;100.00;103084.50;4881574;28;20033;-81
2021/12/13 08:18:25;;;;;;;79.57;8.02;;;4.80;99.90;;;3.03;100.00;103066.22;4901295;28;20032;-81
2021/12/13 08:21:09;;;;;;;129.88;10.60;;;4.90;99.90;;;3.03;100.00;103040.22;4891534;28;20038;-82
2021/12/13 08:24:01;;;;;;;126.78;11.80;;;4.90;99.90;;;3.09;100.00;102995.22;4907297;28;20078;-82
2021/12/13 08:26:40;;;;;;;222.00;33.97;;;4.90;99.90;;;3.17;100.00;102972.78;4886315;28;20085;-81
2021/12/13 08:29:31;;;;;;;294.83;44.95;;;5.00;99.90;;;3.22;100.00;102975.53;4886282;28;20040;-81
2021/12/13 08:32:13;;;;;;;118.68;15.35;;;5.00;99.90;;;3.29;100.00;102933.13;4968092;28;20058;-81
2021/12/13 08:34:51;;;;;;;59.80;10.27;;;5.10;99.90;;;3.36;100.00;102953.22;4905407;28;20066;-81
2021/12/13 08:37:38;;;;;;;97.25;17.30;;;5.20;99.90;;;3.40;100.00;102952.41;4943663;28;20026;-82
2021/12/13 08:40:20;;;;;;;83.90;14.32;;;5.20;99.90;;;3.43;100.00;102954.19;4898469;28;20053;-82
2021/12/13 08:42:53;;;;;;;63.25;18.13;;;5.20;99.90;;;3.48;100.00;102948.25;4940197;28;20100;-80
2021/12/13 08:45:39;;;;;;;51.55;10.27;;;5.20;99.90;;;3.52;100.00;102935.25;4912226;28;20035;-82
2021/12/13 08:48:15;;;;;;;98.15;9.20;;;5.30;99.90;;;3.61;100.00;102964.09;4899237;28;20099;-81
2021/12/13 08:51:03;;;;;;;115.53;7.78;;;5.30;99.90;;;3.52;100.00;102943.97;4922496;28;20418;-80
2021/12/13 08:53:38;;;;;;;68.57;6.53;;;5.20;99.90;;;3.54;100.00;102943.97;4895831;28;20029;-81
2021/12/13 08:56:20;;;;;;;102.73;7.50;;;5.30;99.90;;;3.52;100.00;102927.44;4929626;28;20031;-82
2021/12/13 08:59:05;;;;;;;117.60;8.48;;;5.30;99.90;;;3.60;100.00;102944.09;4904457;28;20042;-80
2021/12/13 09:01:54;;;;;;;106.20;7.30;;;5.40;99.90;;;3.66;100.00;102925.97;4859761;28;20095;-82
2021/12/13 09:04:29;;;;;;;99.10;13.20;;;5.40;99.90;;;3.71;100.00;102926.91;4849959;28;20074;-82
2021/12/13 09:07:00;;;;;;;105.05;8.60;;;5.50;99.90;;;3.75;100.00;102913.09;4922551;28;20049;-80
2021/12/13 09:09:27;;;;;;;105.40;8.52;;;5.50;99.90;;;3.78;100.00;102920.06;4886923;28;20037;-81
2021/12/13 09:12:00;;;;;;;95.95;8.32;;;;;;;3.77;100.00;102908.78;4876647;28;20057;-82
2021/12/13 09:14:39;;;;;;;91.75;8.13;;;5.50;99.90;;;3.81;100.00;102927.97;4939916;28;20054;-81
2021/12/13 09:17:26;;;;;;;105.85;7.70;;;5.50;99.90;;;3.79;100.00;102901.88;4883993;28;20028;-81
2021/12/13 09:20:15;;;;;;;;;;;5.50;99.90;;;3.79;100.00;102886.22;4933410;28;20042;-81
2021/12/13 09:23:19;;;;;;;75.13;7.45;;;5.50;99.90;;;3.84;100.00;102888.91;4953015;28;19918;-82
2021/12/13 09:26:07;;;;;;;74.95;8.07;;;5.60;99.90;;;3.86;100.00;102885.47;4876721;28;22114;-81
2021/12/13 09:28:50;;;;;;;97.82;7.45;;;5.60;99.90;;;3.86;100.00;102872.44;4917000;28;20038;-81
2021/12/13 09:31:43;;;;;;;92.00;8.57;;;5.60;99.90;;;3.89;100.00;102875.09;4891069;28;20111;-82
2021/12/13 09:34:18;;;;;;;85.95;6.97;;;5.50;99.90;;;3.84;100.00;102863.72;4881840;28;20042;-80
2021/12/13 09:36:49;;;;;;;87.45;7.20;;;5.60;99.90;;;3.90;100.00;102837.75;4922278;28;20026;-81
2021/12/13 09:39:29;;;;;;;99.75;7.70;;;5.60;99.90;;;3.93;100.00;102844.75;4913119;28;20097;-80
2021/12/13 09:42:05;;;;;;;81.13;6.03;;;5.70;99.90;;;3.94;100.00;102845.63;4874282;28;20037;-81
2021/12/13 09:44:44;;;;;;;111.17;7.03;;;5.70;99.90;;;3.95;100.00;102839.56;4871328;28;20449;-81
2021/12/13 09:47:33;;;;;;;75.80;6.47;;;5.70;99.90;;;4.03;100.00;102845.75;4874587;28;20031;-81
2021/12/13 09:50:06;;;;;;;87.07;6.97;;;5.80;99.90;;;4.04;100.00;102855.31;4869443;28;20050;-81
2021/12/13 09:52:47;;;;;;;91.72;6.57;;;5.80;99.90;;;4.08;100.00;102850.19;4927428;28;20560;-80
2021/12/13 09:55:49;;;;;;;110.95;7.28;;;5.80;99.90;;;4.09;100.00;102843.25;4932526;28;20030;-81
2021/12/13 09:58:27;;;;;;;110.88;6.85;;;5.80;99.90;;;4.04;100.00;102824.03;4883555;28;20425;-80
2021/12/13 10:01:20;;;;;;;61.80;5.80;;;5.80;99.90;;;4.14;100.00;102831.13;4868095;28;20101;-81
2021/12/13 10:04:04;;;;;;;92.00;7.05;;;;;;;4.22;100.00;102844.28;4912094;28;20109;-80
2021/12/13 10:06:47;;;;;;;80.45;7.20;;;6.00;99.90;;;4.29;100.00;102841.78;4899613;28;20033;-81
2021/12/13 10:09:49;;;;;;;71.97;5.90;;;6.10;99.90;;;4.40;100.00;102839.31;4904098;28;20030;-81
2021/12/13 10:12:39;;;;;;;88.82;7.22;;;6.20;99.90;;;4.48;100.00;102832.47;4924069;28;20478;-81
2021/12/13 10:15:22;;;;;;;97.32;5.53;;;6.10;99.90;;;4.34;100.00;102807.06;4878241;28;20038;-81
2021/12/13 10:17:55;;;;;;;105.13;6.85;;;;;;;4.23;100.00;102806.91;4920834;28;20022;-85
2021/12/13 10:21:07;;;;;;;130.43;6.35;;;5.90;99.90;;;4.17;100.00;102789.47;4920160;28;20038;-85
2021/12/13 10:23:44;;;;;;;90.30;6.38;;;5.90;99.90;;;4.24;100.00;102796.50;4879211;28;20042;-83
2021/12/13 10:26:16;;;;;;;110.38;6.97;;;6.00;99.90;;;4.35;100.00;102803.59;4931901;28;20502;-80
2021/12/13 10:28:54;;;;;;;86.30;6.82;;;6.10;99.90;;;4.45;100.00;102810.66;4897985;28;20029;-83
2021/12/13 10:31:28;;;;;;;108.07;7.57;;;6.10;99.90;;;4.48;100.00;102800.28;4887298;28;20491;-82
2021/12/13 10:34:07;;;;;;;88.60;6.47;;;6.20;99.90;;;4.57;100.00;102803.00;4884873;28;20119;-83
2021/12/13 10:36:49;;;;;;;65.78;6.70;;;6.30;99.90;;;4.65;100.00;102797.88;4897384;28;20039;-80
2021/12/13 10:39:33;;;;;;;100.55;6.85;;;6.30;99.90;;;4.72;100.00;102794.47;4916386;28;20053;-80
2021/12/13 10:42:08;;;;;;;85.95;6.45;;;6.40;99.90;;;4.84;100.00;102788.50;4937484;28;20516;-81
2021/12/13 10:44:38;;;;;;;80.47;6.03;;;6.50;99.90;;;4.84;100.00;102796.34;4876878;28;20050;-80
2021/12/13 10:47:21;;;;;;;79.00;6.03;;;6.50;99.90;;;4.87;100.00;102792.00;4901966;28;20152;-80
2021/12/13 10:49:54;;;;;;;60.05;6.13;;;6.60;99.90;;;4.92;100.00;102802.50;4865068;28;21141;-80
2021/12/13 10:52:59;;;;;;;84.15;5.65;;;6.60;99.90;;;4.91;100.00;102798.16;4858883;28;20039;-79
2021/12/13 10:55:35;;;;;;;81.10;4.95;;;6.60;99.90;;;4.99;100.00;102792.97;4901308;28;20040;-80
2021/12/13 10:58:07;;;;;;;82.20;5.10;;;6.70;99.90;;;4.99;100.00;102778.22;4902673;28;20041;-80
2021/12/13 11:00:54;;;;;;;68.63;4.70;;;6.70;99.90;;;5.03;100.00;102780.00;4964156;28;20029;-79
2021/12/13 11:03:27;;;;;;;56.50;4.38;;;6.70;99.90;;;5.02;100.00;102775.63;4917291;28;20153;-80
2021/12/13 11:05:57;;;;;;;82.95;4.72;;;;;;;4.97;100.00;102764.28;4885965;28;20033;-80
2021/12/13 11:08:41;;;;;;;77.43;5.63;;;;;;;4.94;100.00;102748.56;4912736;28;20026;-80
2021/12/13 11:11:23;;;;;;;88.05;5.18;;;6.60;99.90;;;4.93;100.00;102732.03;4911319;28;20114;-80
2021/12/13 11:14:00;;;;;;;70.15;4.28;;;6.60;99.90;;;4.96;100.00;102732.91;4922964;28;20043;-81
2021/12/13 11:16:39;;;;;;;69.95;4.50;;;;;;;4.94;100.00;102731.16;4926880;28;20059;-79